createdAt,value
2022-09-27T00:00:43.070Z,0.90
2022-09-27T00:03:11.354Z,1.38
2022-09-27T00:05:38.721Z,0.80
2022-09-27T00:08:07.770Z,0.88
2022-09-27T00:10:36.743Z,0.65
2022-09-27T00:13:06.407Z,0.68
2022-09-27T00:15:35.216Z,0.90
2022-09-27T00:18:04.148Z,1.00
2022-09-27T00:20:30.688Z,0.60
2022-09-27T00:22:59.450Z,0.88
2022-09-27T00:25:25.927Z,0.63
2022-09-27T00:27:52.445Z,1.02
2022-09-27T00:30:18.920Z,0.70
2022-09-27T00:32:48.013Z,0.40
2022-09-27T00:35:16.934Z,0.75
2022-09-27T00:37:43.468Z,0.60
2022-09-27T00:40:10.172Z,0.65
2022-09-27T00:42:37.083Z,0.60
2022-09-27T00:45:16.403Z,0.82
2022-09-27T00:47:54.085Z,0.63
2022-09-27T00:50:26.519Z,0.57
2022-09-27T00:53:14.270Z,0.47
2022-09-27T00:55:45.164Z,0.68
2022-09-27T00:58:15.682Z,0.73
2022-09-27T01:00:45.844Z,0.57
2022-09-27T01:03:29.949Z,0.77
2022-09-27T01:05:59.918Z,0.57
2022-09-27T01:08:26.535Z,0.50
2022-09-27T01:11:12.104Z,0.80
2022-09-27T01:14:02.961Z,0.70
2022-09-27T01:16:50.528Z,0.80
2022-09-27T01:19:29.179Z,0.52
2022-09-27T01:22:04.177Z,0.50
2022-09-27T01:24:55.352Z,0.60
2022-09-27T01:28:19.054Z,0.57
2022-09-27T01:30:56.351Z,0.55
2022-09-27T01:33:40.816Z,0.65
2022-09-27T01:36:26.201Z,0.70
2022-09-27T01:39:08.084Z,0.65
2022-09-27T01:41:55.678Z,0.63
2022-09-27T01:44:27.277Z,0.70
2022-09-27T01:46:58.240Z,0.60
2022-09-27T01:49:39.385Z,0.90
2022-09-27T01:52:10.481Z,0.63
2022-09-27T01:54:45.548Z,0.50
2022-09-27T01:57:16.608Z,0.47
2022-09-27T02:00:01.609Z,0.57
2022-09-27T02:02:35.429Z,0.70
2022-09-27T02:05:05.701Z,0.80
2022-09-27T02:07:50.740Z,0.82
2022-09-27T02:10:25.629Z,0.60
2022-09-27T02:13:01.787Z,0.50
2022-09-27T02:15:33.163Z,0.50
2022-09-27T02:18:03.121Z,0.70
2022-09-27T02:20:34.234Z,0.50
2022-09-27T02:23:29.899Z,0.52
2022-09-27T02:26:00.552Z,0.50
2022-09-27T02:28:43.847Z,0.43
2022-09-27T02:31:12.673Z,0.60
2022-09-27T02:33:45.457Z,0.50
2022-09-27T02:36:15.281Z,0.40
2022-09-27T02:38:43.999Z,0.40
2022-09-27T02:41:20.906Z,0.50
2022-09-27T02:43:55.163Z,0.47
2022-09-27T02:46:43.605Z,0.50
2022-09-27T02:49:17.049Z,0.50
2022-09-27T02:52:25.217Z,0.40
2022-09-27T02:55:19.892Z,0.80
2022-09-27T02:58:25.222Z,0.70
2022-09-27T03:01:24.510Z,1.02
2022-09-27T03:04:02.328Z,0.73
2022-09-27T03:06:32.792Z,0.80
2022-09-27T03:08:59.323Z,0.70
2022-09-27T03:11:28.191Z,1.30
2022-09-27T03:14:08.288Z,0.88
2022-09-27T03:16:38.141Z,0.90
2022-09-27T03:19:04.719Z,0.70
2022-09-27T03:21:31.221Z,0.73
2022-09-27T03:23:57.720Z,1.02
2022-09-27T03:26:27.426Z,0.77
2022-09-27T03:28:53.969Z,0.85
2022-09-27T03:31:22.960Z,0.93
2022-09-27T03:33:49.546Z,0.70
2022-09-27T03:36:16.177Z,1.00
2022-09-27T03:38:42.697Z,0.90
2022-09-27T03:41:09.356Z,1.20
2022-09-27T03:43:44.634Z,0.80
2022-09-27T03:46:11.351Z,0.90
2022-09-27T03:48:37.993Z,0.70
2022-09-27T03:51:06.937Z,1.05
2022-09-27T03:53:33.434Z,0.88
2022-09-27T03:56:02.228Z,0.60
2022-09-27T03:58:31.196Z,0.60
2022-09-27T04:01:00.091Z,0.70
2022-09-27T04:03:27.094Z,0.47
2022-09-27T04:05:56.369Z,0.50
2022-09-27T04:08:23.176Z,0.30
2022-09-27T04:10:52.036Z,0.60
2022-09-27T04:13:18.584Z,0.63
2022-09-27T04:15:51.900Z,0.82
2022-09-27T04:18:18.911Z,0.40
2022-09-27T04:20:45.475Z,0.75
2022-09-27T04:23:14.576Z,0.50
2022-09-27T04:25:41.207Z,0.70
2022-09-27T04:28:10.063Z,0.50
2022-09-27T04:30:36.591Z,0.65
2022-09-27T04:33:03.137Z,0.90
2022-09-27T04:35:50.665Z,0.50
2022-09-27T04:38:20.351Z,0.60
2022-09-27T04:40:49.061Z,0.50
2022-09-27T04:43:17.873Z,0.80
2022-09-27T04:45:46.871Z,1.00
2022-09-27T04:48:13.530Z,0.40
2022-09-27T04:50:40.436Z,0.73
2022-09-27T04:53:09.676Z,0.40
2022-09-27T04:55:38.685Z,0.50
2022-09-27T04:58:07.293Z,0.70
2022-09-27T05:00:33.839Z,0.73
2022-09-27T05:03:02.732Z,0.60
2022-09-27T05:05:29.262Z,0.60
2022-09-27T05:07:55.807Z,0.70
2022-09-27T05:10:22.374Z,0.57
2022-09-27T05:12:48.869Z,0.40
2022-09-27T05:15:20.259Z,0.50
2022-09-27T05:17:46.747Z,0.50
2022-09-27T05:20:14.161Z,0.28
2022-09-27T05:22:40.800Z,0.60
2022-09-27T05:25:09.837Z,0.55
2022-09-27T05:27:36.456Z,0.55
2022-09-27T05:30:03.030Z,0.38
2022-09-27T05:32:29.585Z,0.40
2022-09-27T05:34:56.184Z,0.50
2022-09-27T05:37:24.942Z,0.50
2022-09-27T05:39:51.462Z,0.40
2022-09-27T05:42:19.726Z,0.60
2022-09-27T05:44:48.538Z,0.60
2022-09-27T05:47:17.406Z,0.40
2022-09-27T05:49:43.976Z,0.68
2022-09-27T05:52:14.990Z,0.57
2022-09-27T05:54:48.080Z,0.50
2022-09-27T05:57:14.614Z,0.80
2022-09-27T05:59:41.307Z,0.63
2022-09-27T06:02:12.490Z,0.50
2022-09-27T06:04:41.544Z,0.52
2022-09-27T06:07:08.054Z,0.40
2022-09-27T06:09:34.517Z,0.50
2022-09-27T06:12:01.160Z,0.40
2022-09-27T06:14:27.786Z,0.50
2022-09-27T06:16:55.147Z,0.60
2022-09-27T06:19:21.831Z,0.50
2022-09-27T06:21:51.447Z,0.40
2022-09-27T06:24:18.175Z,0.40
2022-09-27T06:26:47.045Z,0.55
2022-09-27T06:29:13.562Z,0.68
2022-09-27T06:31:42.534Z,0.47
2022-09-27T06:34:09.052Z,0.80
2022-09-27T06:36:35.601Z,0.60
2022-09-27T06:39:02.193Z,0.52
2022-09-27T06:41:28.727Z,0.65
2022-09-27T06:43:56.232Z,0.70
2022-09-27T06:46:25.386Z,0.60
2022-09-27T06:48:52.933Z,0.68
2022-09-27T06:51:20.330Z,0.50
2022-09-27T06:53:49.238Z,0.70
2022-09-27T06:56:18.152Z,0.60
2022-09-27T06:59:03.319Z,0.90
2022-09-27T07:01:30.227Z,0.63
2022-09-27T07:03:58.836Z,0.60
2022-09-27T07:06:25.878Z,0.75
2022-09-27T07:08:53.695Z,0.60
2022-09-27T07:11:23.415Z,0.80
2022-09-27T07:13:51.032Z,1.00
2022-09-27T07:16:22.364Z,0.90
2022-09-27T07:18:50.074Z,0.88
2022-09-27T07:21:16.625Z,0.95
2022-09-27T07:23:45.360Z,0.80
2022-09-27T07:26:15.641Z,0.90
2022-09-27T07:28:42.221Z,1.00
2022-09-27T07:31:09.315Z,1.00
2022-09-27T07:33:38.008Z,1.23
2022-09-27T07:36:11.533Z,0.90
2022-09-27T07:38:42.887Z,1.30
2022-09-27T07:41:12.945Z,1.10
2022-09-27T07:43:42.211Z,1.10
2022-09-27T07:46:14.524Z,1.10
2022-09-27T07:48:43.562Z,1.52
2022-09-27T07:51:11.911Z,1.60
2022-09-27T07:53:38.489Z,1.60
2022-09-27T07:56:05.192Z,1.80
2022-09-27T07:58:32.426Z,1.80
2022-09-27T08:01:00.303Z,2.30
2022-09-27T08:03:27.104Z,2.15
2022-09-27T08:05:55.941Z,1.75
2022-09-27T08:08:22.539Z,2.17
2022-09-27T08:10:49.057Z,2.75
2022-09-27T08:13:20.304Z,2.35
2022-09-27T08:15:52.582Z,2.60
2022-09-27T08:18:21.911Z,4.10
2022-09-27T08:20:48.420Z,3.10
2022-09-27T08:23:15.003Z,3.17
2022-09-27T08:25:42.165Z,3.03
2022-09-27T08:28:09.350Z,3.10
2022-09-27T08:30:38.459Z,3.78
2022-09-27T08:33:05.053Z,3.35
2022-09-27T08:35:33.888Z,2.80
2022-09-27T08:38:05.879Z,3.40
2022-09-27T08:40:52.331Z,3.03
2022-09-27T08:43:37.523Z,3.40
2022-09-27T08:46:16.200Z,3.15
2022-09-27T08:48:47.911Z,2.83
2022-09-27T08:51:17.706Z,3.17
2022-09-27T08:53:53.288Z,3.22
2022-09-27T08:56:21.537Z,3.70
2022-09-27T08:59:12.521Z,3.33
2022-09-27T09:01:42.587Z,3.47
2022-09-27T09:04:11.127Z,3.85
2022-09-27T09:06:55.640Z,3.45
2022-09-27T09:09:40.555Z,3.95
2022-09-27T09:12:50.514Z,3.80
2022-09-27T09:15:21.011Z,3.28
2022-09-27T09:18:26.625Z,5.53
2022-09-27T09:21:09.085Z,4.05
2022-09-27T09:23:57.246Z,4.13
2022-09-27T09:26:53.172Z,3.50
2022-09-27T09:29:39.952Z,3.60
2022-09-27T09:32:14.080Z,3.72
2022-09-27T09:34:49.373Z,3.53
2022-09-27T09:37:45.320Z,4.97
2022-09-27T09:40:25.454Z,3.60
2022-09-27T09:42:59.800Z,2.92
2022-09-27T09:45:41.704Z,2.35
2022-09-27T09:48:30.090Z,1.10
2022-09-27T09:50:59.633Z,0.93
2022-09-27T09:53:33.406Z,0.80
2022-09-27T09:56:07.321Z,0.70
2022-09-27T09:58:48.172Z,0.80
2022-09-27T10:01:30.309Z,0.70
2022-09-27T10:03:57.236Z,1.00
2022-09-27T10:06:25.895Z,1.10
2022-09-27T10:08:54.922Z,1.60
2022-09-27T10:11:39.433Z,1.20
2022-09-27T10:14:16.533Z,1.50
2022-09-27T10:16:48.704Z,1.00
2022-09-27T10:19:28.532Z,0.90
2022-09-27T10:22:02.631Z,0.85
2022-09-27T10:24:59.376Z,0.80
2022-09-27T10:27:26.752Z,0.90
2022-09-27T10:30:00.983Z,0.55
2022-09-27T10:32:35.790Z,0.80
2022-09-27T10:35:30.495Z,0.90
2022-09-27T10:38:25.005Z,0.68
2022-09-27T10:40:54.088Z,0.52
2022-09-27T10:43:29.976Z,0.50
2022-09-27T10:46:12.595Z,0.70
2022-09-27T10:48:42.181Z,0.57
2022-09-27T10:51:40.624Z,0.50
2022-09-27T10:54:19.975Z,0.63
2022-09-27T10:56:56.970Z,0.40
2022-09-27T10:59:24.327Z,0.55
2022-09-27T11:01:51.835Z,0.43
2022-09-27T11:04:33.955Z,0.40
2022-09-27T11:07:09.334Z,0.40
2022-09-27T11:10:06.090Z,0.30
2022-09-27T11:12:35.484Z,0.50
2022-09-27T11:15:07.507Z,0.45
2022-09-27T11:18:06.508Z,0.40
2022-09-27T11:20:46.185Z,0.32
2022-09-27T11:23:29.286Z,0.40
2022-09-27T11:26:27.864Z,0.40
2022-09-27T11:29:14.422Z,0.50
2022-09-27T11:31:58.465Z,0.40
2022-09-27T11:34:54.002Z,0.50
2022-09-27T11:37:41.591Z,0.50
2022-09-27T11:40:41.058Z,0.43
2022-09-27T11:43:35.519Z,0.38
2022-09-27T11:46:29.923Z,0.60
2022-09-27T11:49:10.433Z,0.28
2022-09-27T11:52:05.105Z,0.30
2022-09-27T11:54:42.590Z,0.47
2022-09-27T11:57:18.962Z,0.38
2022-09-27T12:00:24.161Z,0.30
2022-09-27T12:03:20.668Z,0.40
2022-09-27T12:06:06.310Z,0.30
2022-09-27T12:08:44.145Z,0.30
2022-09-27T12:11:28.189Z,0.22
2022-09-27T12:13:57.682Z,0.22
2022-09-27T12:16:29.264Z,0.30
2022-09-27T12:18:58.357Z,0.28
2022-09-27T12:21:28.612Z,0.20
2022-09-27T12:24:00.827Z,0.50
2022-09-27T12:26:37.729Z,0.30
2022-09-27T12:29:25.102Z,0.40
2022-09-27T12:32:16.486Z,0.35
2022-09-27T12:34:48.050Z,0.20
2022-09-27T12:37:57.242Z,0.40
2022-09-27T12:40:29.332Z,0.20
2022-09-27T12:43:12.691Z,0.47
2022-09-27T12:45:54.774Z,0.20
2022-09-27T12:48:53.227Z,0.25
2022-09-27T12:51:22.777Z,1.00
2022-09-27T12:53:49.244Z,0.45
2022-09-27T12:56:50.049Z,0.38
2022-09-27T12:59:44.619Z,0.40
2022-09-27T13:02:14.272Z,0.40
2022-09-27T13:04:58.212Z,0.40
2022-09-27T13:07:42.510Z,0.30
2022-09-27T13:10:09.039Z,0.40
2022-09-27T13:12:36.940Z,0.30
2022-09-27T13:15:24.237Z,0.22
2022-09-27T13:17:56.404Z,0.15
2022-09-27T13:20:34.788Z,0.28
2022-09-27T13:23:05.354Z,0.30
2022-09-27T13:25:55.890Z,0.32
2022-09-27T13:28:45.935Z,0.20
2022-09-27T13:31:15.926Z,0.30
2022-09-27T13:33:47.101Z,0.40
2022-09-27T13:36:16.609Z,0.30
2022-09-27T13:39:07.031Z,0.40
2022-09-27T13:41:46.070Z,0.55
2022-09-27T13:44:16.828Z,0.60
2022-09-27T13:46:55.837Z,0.50
2022-09-27T13:49:38.717Z,0.70
2022-09-27T13:52:34.077Z,0.63
2022-09-27T13:55:07.321Z,0.70
2022-09-27T13:57:48.900Z,0.73
2022-09-27T14:00:26.771Z,0.70
2022-09-27T14:02:56.453Z,0.60
2022-09-27T14:05:28.578Z,0.73
2022-09-27T14:08:00.046Z,0.60
2022-09-27T14:10:29.133Z,1.10
2022-09-27T14:12:56.203Z,0.88
2022-09-27T14:15:34.590Z,1.00
2022-09-27T14:18:01.330Z,0.80
2022-09-27T14:20:36.150Z,0.90
2022-09-27T14:23:03.498Z,0.90
2022-09-27T14:25:30.657Z,0.80
2022-09-27T14:28:00.577Z,1.27
2022-09-27T14:30:30.188Z,1.08
2022-09-27T14:33:01.698Z,1.23
2022-09-27T14:35:49.194Z,1.00
2022-09-27T14:38:37.704Z,1.00
2022-09-27T14:41:10.493Z,1.13
2022-09-27T14:43:45.790Z,1.25
2022-09-27T14:46:31.811Z,1.10
2022-09-27T14:48:59.723Z,1.00
2022-09-27T14:51:29.271Z,1.20
2022-09-27T14:54:00.612Z,1.20
2022-09-27T14:56:37.853Z,0.90
2022-09-27T14:59:11.385Z,0.90
2022-09-27T15:01:40.042Z,0.80
2022-09-27T15:04:13.566Z,0.80
2022-09-27T15:06:40.405Z,0.65
2022-09-27T15:09:10.251Z,0.80
2022-09-27T15:11:39.679Z,0.80
2022-09-27T15:14:11.713Z,0.70
2022-09-27T15:16:38.546Z,0.77
2022-09-27T15:19:22.992Z,0.60
2022-09-27T15:21:49.580Z,0.70
2022-09-27T15:24:37.969Z,0.65
2022-09-27T15:27:25.717Z,0.60
2022-09-27T15:29:55.496Z,0.70
2022-09-27T15:32:27.981Z,0.90
2022-09-27T15:35:06.424Z,1.02
2022-09-27T15:37:38.977Z,0.80
2022-09-27T15:40:31.100Z,0.90
2022-09-27T15:42:59.531Z,0.80
2022-09-27T15:45:39.114Z,1.00
2022-09-27T15:48:13.648Z,0.90
2022-09-27T15:50:41.371Z,0.90
2022-09-27T15:53:09.806Z,0.73
2022-09-27T15:55:42.222Z,0.70
2022-09-27T15:58:16.537Z,0.90
2022-09-27T16:00:58.153Z,0.65
2022-09-27T16:03:26.702Z,0.70
2022-09-27T16:05:56.186Z,0.60
2022-09-27T16:08:26.644Z,0.65
2022-09-27T16:11:03.233Z,0.65
2022-09-27T16:13:33.274Z,0.90
2022-09-27T16:16:01.752Z,0.80
2022-09-27T16:18:30.877Z,0.70
2022-09-27T16:21:02.471Z,0.70
2022-09-27T16:23:29.046Z,0.80
2022-09-27T16:25:55.590Z,0.60
2022-09-27T16:28:22.113Z,1.27
2022-09-27T16:30:48.738Z,0.90
2022-09-27T16:33:17.947Z,0.70
2022-09-27T16:35:44.469Z,0.85
2022-09-27T16:38:11.011Z,0.60
2022-09-27T16:40:38.194Z,0.70
2022-09-27T16:43:07.474Z,0.80
2022-09-27T16:45:36.958Z,1.27
2022-09-27T16:48:03.876Z,0.80
2022-09-27T16:50:49.002Z,0.73
2022-09-27T16:53:17.576Z,0.95
2022-09-27T16:55:44.071Z,0.90
2022-09-27T16:58:10.724Z,0.98
2022-09-27T17:00:37.685Z,0.90
2022-09-27T17:03:04.522Z,1.17
2022-09-27T17:05:31.865Z,1.10
2022-09-27T17:07:58.793Z,0.85
2022-09-27T17:10:25.340Z,0.80
2022-09-27T17:12:55.935Z,0.70
2022-09-27T17:15:22.519Z,1.10
2022-09-27T17:17:49.602Z,0.90
2022-09-27T17:20:16.332Z,1.23
2022-09-27T17:22:42.926Z,0.93
2022-09-27T17:25:09.572Z,0.85
2022-09-27T17:27:36.091Z,0.90
2022-09-27T17:30:02.927Z,0.80
2022-09-27T17:32:29.471Z,0.80
2022-09-27T17:34:58.627Z,0.95
2022-09-27T17:37:27.907Z,1.20
2022-09-27T17:39:57.652Z,1.13
2022-09-27T17:42:25.402Z,1.30
2022-09-27T17:44:52.106Z,1.23
2022-09-27T17:47:37.266Z,1.70
2022-09-27T17:50:22.602Z,1.33
2022-09-27T17:52:49.153Z,1.55
2022-09-27T17:55:17.996Z,1.33
2022-09-27T17:57:47.627Z,1.50
2022-09-27T18:00:14.945Z,1.30
2022-09-27T18:02:41.650Z,1.58
2022-09-27T18:05:08.995Z,1.88
2022-09-27T18:07:37.881Z,2.35
2022-09-27T18:10:05.181Z,2.63
2022-09-27T18:12:32.469Z,2.60
2022-09-27T18:15:01.526Z,3.75
2022-09-27T18:17:28.311Z,3.50
2022-09-27T18:19:59.979Z,3.75
2022-09-27T18:22:31.055Z,3.30
2022-09-27T18:24:57.641Z,3.72
2022-09-27T18:27:24.447Z,3.47
2022-09-27T18:29:54.168Z,2.80
2022-09-27T18:32:20.781Z,3.05
2022-09-27T18:34:49.694Z,2.75
2022-09-27T18:37:16.359Z,2.78
2022-09-27T18:39:42.990Z,2.90
2022-09-27T18:42:11.934Z,3.03
2022-09-27T18:44:40.933Z,2.88
2022-09-27T18:47:07.602Z,3.15
2022-09-27T18:49:36.504Z,3.30
2022-09-27T18:52:03.037Z,3.28
2022-09-27T18:54:29.737Z,3.05
2022-09-27T18:56:56.321Z,3.13
2022-09-27T18:59:24.043Z,3.17
2022-09-27T19:01:51.288Z,3.30
2022-09-27T19:04:26.821Z,3.30
2022-09-27T19:06:55.059Z,3.10
2022-09-27T19:09:26.300Z,3.22
2022-09-27T19:11:52.921Z,3.47
2022-09-27T19:14:23.663Z,2.97
2022-09-27T19:16:50.901Z,3.97
2022-09-27T19:19:18.700Z,3.53
2022-09-27T19:21:45.863Z,4.15
2022-09-27T19:24:14.081Z,4.53
2022-09-27T19:26:41.217Z,4.85
2022-09-27T19:29:10.554Z,3.92
2022-09-27T19:31:37.764Z,3.85
2022-09-27T19:34:04.324Z,4.43
2022-09-27T19:36:33.491Z,3.72
2022-09-27T19:39:00.400Z,3.95
2022-09-27T19:41:27.415Z,3.83
2022-09-27T19:43:57.527Z,3.85
2022-09-27T19:46:25.523Z,3.75
2022-09-27T19:48:52.876Z,3.20
2022-09-27T19:51:22.053Z,3.75
2022-09-27T19:53:52.174Z,3.47
2022-09-27T19:56:19.873Z,3.10
2022-09-27T19:58:46.505Z,3.38
2022-09-27T20:01:19.282Z,3.55
2022-09-27T20:03:46.931Z,3.78
2022-09-27T20:06:20.226Z,3.88
2022-09-27T20:08:50.104Z,3.10
2022-09-27T20:11:21.648Z,3.58
2022-09-27T20:13:51.131Z,3.35
2022-09-27T20:16:20.342Z,3.30
2022-09-27T20:19:01.214Z,3.22
2022-09-27T20:21:35.439Z,2.97
2022-09-27T20:24:04.494Z,2.83
2022-09-27T20:26:32.104Z,2.40
2022-09-27T20:29:00.218Z,2.58
2022-09-27T20:31:34.065Z,2.58
2022-09-27T20:34:03.513Z,2.72
2022-09-27T20:36:36.589Z,2.20
2022-09-27T20:39:09.142Z,2.78
2022-09-27T20:41:46.557Z,2.88
2022-09-27T20:44:18.391Z,2.42
2022-09-27T20:46:45.866Z,2.28
2022-09-27T20:49:14.936Z,2.35
2022-09-27T20:51:43.280Z,2.30
2022-09-27T20:54:11.822Z,2.33
2022-09-27T20:56:41.144Z,2.25
2022-09-27T20:59:14.957Z,2.40
2022-09-27T21:01:46.117Z,2.40
2022-09-27T21:04:14.725Z,2.10
2022-09-27T21:06:41.333Z,2.17
2022-09-27T21:09:16.953Z,2.30
2022-09-27T21:11:43.800Z,1.88
2022-09-27T21:14:12.555Z,2.08
2022-09-27T21:16:39.143Z,2.00
2022-09-27T21:19:05.748Z,2.05
2022-09-27T21:21:34.574Z,1.92
2022-09-27T21:24:02.625Z,1.75
2022-09-27T21:26:33.173Z,1.98
2022-09-27T21:29:05.685Z,1.85
2022-09-27T21:31:35.872Z,2.28
2022-09-27T21:34:04.074Z,1.75
2022-09-27T21:36:34.922Z,1.90
2022-09-27T21:39:01.964Z,2.00
2022-09-27T21:41:30.815Z,1.88
2022-09-27T21:43:57.601Z,1.63
2022-09-27T21:46:28.325Z,1.90
2022-09-27T21:48:59.403Z,1.70
2022-09-27T21:51:30.643Z,1.90
2022-09-27T21:54:03.053Z,2.13
2022-09-27T21:56:37.514Z,1.90
2022-09-27T21:59:05.637Z,2.55
2022-09-27T22:01:36.009Z,2.20
2022-09-27T22:04:07.087Z,2.33
2022-09-27T22:06:36.565Z,2.42
2022-09-27T22:09:06.098Z,2.50
2022-09-27T22:11:39.914Z,2.72
2022-09-27T22:14:09.654Z,2.92
2022-09-27T22:16:41.129Z,3.03
2022-09-27T22:19:08.077Z,3.28
2022-09-27T22:21:39.025Z,3.47
2022-09-27T22:24:08.491Z,4.00
2022-09-27T22:26:37.543Z,3.78
2022-09-27T22:29:08.038Z,4.20
2022-09-27T22:31:34.957Z,4.03
2022-09-27T22:34:04.714Z,4.95
2022-09-27T22:36:32.375Z,5.05
2022-09-27T22:38:59.204Z,5.70
2022-09-27T22:41:25.742Z,5.53
2022-09-27T22:43:54.577Z,5.50
2022-09-27T22:46:24.406Z,5.50
2022-09-27T22:48:51.007Z,5.63
2022-09-27T22:51:20.727Z,6.03
2022-09-27T22:53:47.252Z,6.05
2022-09-27T22:56:19.779Z,5.80
2022-09-27T22:58:47.690Z,6.53
2022-09-27T23:01:22.439Z,6.40
2022-09-27T23:03:51.188Z,7.07
2022-09-27T23:06:21.798Z,6.80
2022-09-27T23:08:54.931Z,6.63
2022-09-27T23:11:22.631Z,6.20
2022-09-27T23:13:50.377Z,6.88
2022-09-27T23:16:25.423Z,7.60
2022-09-27T23:18:53.675Z,7.57
2022-09-27T23:21:24.760Z,7.25
2022-09-27T23:23:59.879Z,7.65
2022-09-27T23:26:30.253Z,8.18
2022-09-27T23:28:59.267Z,7.45
2022-09-27T23:31:28.185Z,8.20
2022-09-27T23:33:59.176Z,8.15
2022-09-27T23:36:30.649Z,7.93
2022-09-27T23:39:02.685Z,7.53
2022-09-27T23:41:29.432Z,8.15
2022-09-27T23:43:56.595Z,7.65
2022-09-27T23:46:23.864Z,8.27
2022-09-27T23:48:53.586Z,8.02
2022-09-27T23:51:22.399Z,8.23
2022-09-27T23:53:49.475Z,8.40
2022-09-27T23:56:20.310Z,8.75
2022-09-27T23:58:47.293Z,8.45
